sensor_id;sensor_type;location;lat;lon;timestamp;temperature;humidity
10524;DHT22;5310;48.638;9.060;2023-03-01T00:20:08;-3.70;99.90
10524;DHT22;5310;48.638;9.060;2023-03-01T01:43:24;-4.20;99.90
10524;DHT22;5310;48.638;9.060;2023-03-01T02:00:37;-3.60;99.90
10524;DHT22;5310;48.638;9.060;2023-03-01T02:20:34;-2.90;99.90
10524;DHT22;5310;48.638;9.060;2023-03-01T02:28:19;-2.70;99.90
10524;DHT22;5310;48.638;9.060;2023-03-01T02:36:03;-2.60;99.90
10524;DHT22;5310;48.638;9.060;2023-03-01T03:10:40;-2.20;99.90
10524;DHT22;5310;48.638;9.060;2023-03-01T03:32:44;-1.90;99.90
10524;DHT22;5310;48.638;9.060;2023-03-01T05:03:51;-1.40;99.90
10524;DHT22;5310;48.638;9.060;2023-03-01T05:13:36;-1.50;99.90
10524;DHT22;5310;48.638;9.060;2023-03-01T05:23:24;-1.50;99.90
10524;DHT22;5310;48.638;9.060;2023-03-01T05:25:50;-1.50;99.90
10524;DHT22;5310;48.638;9.060;2023-03-01T05:40:33;-1.30;99.90
10524;DHT22;5310;48.638;9.060;2023-03-01T05:42:59;-1.30;99.90
10524;DHT22;5310;48.638;9.060;2023-03-01T05:47:53;-1.40;99.90
10524;DHT22;5310;48.638;9.060;2023-03-01T05:50:23;-1.20;99.90
10524;DHT22;5310;48.638;9.060;2023-03-01T05:55:20;-1.30;99.90
10524;DHT22;5310;48.638;9.060;2023-03-01T06:44:02;-0.60;99.90
10524;DHT22;5310;48.638;9.060;2023-03-01T06:46:28;-0.60;99.90
10524;DHT22;5310;48.638;9.060;2023-03-01T06:56:11;-0.60;99.90
10524;DHT22;5310;48.638;9.060;2023-03-01T06:58:37;-0.50;99.90
10524;DHT22;5310;48.638;9.060;2023-03-01T07:01:09;-0.50;99.90
10524;DHT22;5310;48.638;9.060;2023-03-01T07:03:35;-0.50;99.90
10524;DHT22;5310;48.638;9.060;2023-03-01T07:08:26;-0.50;99.90
10524;DHT22;5310;48.638;9.060;2023-03-01T07:10:58;-0.50;99.90
10524;DHT22;5310;48.638;9.060;2023-03-01T07:18:16;-0.40;99.90
10524;DHT22;5310;48.638;9.060;2023-03-01T07:30:26;-0.20;99.90
10524;DHT22;5310;48.638;9.060;2023-03-01T07:37:45;-0.10;99.90
10524;DHT22;5310;48.638;9.060;2023-03-01T07:42:37;0.00;99.90
10524;DHT22;5310;48.638;9.060;2023-03-01T07:45:04;0.00;99.90
10524;DHT22;5310;48.638;9.060;2023-03-01T08:09:24;0.50;99.90
10524;DHT22;5310;48.638;9.060;2023-03-01T08:21:35;0.90;98.60
10524;DHT22;5310;48.638;9.060;2023-03-01T08:24:03;0.80;98.40
10524;DHT22;5310;48.638;9.060;2023-03-01T08:26:29;0.80;98.50
10524;DHT22;5310;48.638;9.060;2023-03-01T08:28:54;0.90;98.60
10524;DHT22;5310;48.638;9.060;2023-03-01T08:41:15;1.10;97.40
10524;DHT22;5310;48.638;9.060;2023-03-01T08:43:41;1.20;97.70
10524;DHT22;5310;48.638;9.060;2023-03-01T08:51:16;1.20;96.90
10524;DHT22;5310;48.638;9.060;2023-03-01T08:53:42;1.20;96.80
10524;DHT22;5310;48.638;9.060;2023-03-01T08:56:08;1.30;96.80
10524;DHT22;5310;48.638;9.060;2023-03-01T08:58:34;1.60;96.70
10524;DHT22;5310;48.638;9.060;2023-03-01T09:01:00;1.60;96.40
10524;DHT22;5310;48.638;9.060;2023-03-01T09:03:26;1.50;96.50
10524;DHT22;5310;48.638;9.060;2023-03-01T09:05:53;1.80;96.00
10524;DHT22;5310;48.638;9.060;2023-03-01T09:08:19;1.80;95.70
10524;DHT22;5310;48.638;9.060;2023-03-01T09:10:45;1.80;95.60
10524;DHT22;5310;48.638;9.060;2023-03-01T09:15:37;1.40;96.10
10524;DHT22;5310;48.638;9.060;2023-03-01T09:20:30;1.60;96.30
10524;DHT22;5310;48.638;9.060;2023-03-01T09:22:57;1.60;95.90
10524;DHT22;5310;48.638;9.060;2023-03-01T09:25:23;1.60;95.60
10524;DHT22;5310;48.638;9.060;2023-03-01T09:27:53;1.80;94.70
10524;DHT22;5310;48.638;9.060;2023-03-01T09:35:11;2.00;94.30
10524;DHT22;5310;48.638;9.060;2023-03-01T09:37:37;2.20;93.70
10524;DHT22;5310;48.638;9.060;2023-03-01T09:40:05;2.20;93.50
10524;DHT22;5310;48.638;9.060;2023-03-01T09:42:36;2.30;93.40
10524;DHT22;5310;48.638;9.060;2023-03-01T09:45:21;2.20;93.60
10524;DHT22;5310;48.638;9.060;2023-03-01T10:06:21;2.50;92.20
10524;DHT22;5310;48.638;9.060;2023-03-01T10:11:32;2.90;91.90
10524;DHT22;5310;48.638;9.060;2023-03-01T10:14:19;2.90;91.70
10524;DHT22;5310;48.638;9.060;2023-03-01T10:17:33;3.00;91.70
10524;DHT22;5310;48.638;9.060;2023-03-01T10:19:44;2.80;91.40
10524;DHT22;5310;48.638;9.060;2023-03-01T10:22:13;3.00;91.60
10524;DHT22;5310;48.638;9.060;2023-03-01T10:27:22;3.00;91.30
10524;DHT22;5310;48.638;9.060;2023-03-01T10:37:18;3.10;90.50
10524;DHT22;5310;48.638;9.060;2023-03-01T10:40:05;3.30;90.80
10524;DHT22;5310;48.638;9.060;2023-03-01T10:53:01;3.80;89.10
10524;DHT22;5310;48.638;9.060;2023-03-01T10:55:37;3.90;89.40
10524;DHT22;5310;48.638;9.060;2023-03-01T10:58:18;4.00;88.50
10524;DHT22;5310;48.638;9.060;2023-03-01T11:03:15;4.10;87.90
10524;DHT22;5310;48.638;9.060;2023-03-01T11:06:04;4.10;87.90
10524;DHT22;5310;48.638;9.060;2023-03-01T11:08:36;4.20;87.90
10524;DHT22;5310;48.638;9.060;2023-03-01T11:11:13;4.10;87.60
10524;DHT22;5310;48.638;9.060;2023-03-01T11:14:07;4.30;88.20
10524;DHT22;5310;48.638;9.060;2023-03-01T11:16:40;4.30;88.50
10524;DHT22;5310;48.638;9.060;2023-03-01T11:24:13;4.70;87.00
10524;DHT22;5310;48.638;9.060;2023-03-01T11:29:26;4.70;86.70
10524;DHT22;5310;48.638;9.060;2023-03-01T11:31:55;4.70;86.40
10524;DHT22;5310;48.638;9.060;2023-03-01T11:34:46;4.80;85.80
10524;DHT22;5310;48.638;9.060;2023-03-01T11:37:36;4.60;85.50
10524;DHT22;5310;48.638;9.060;2023-03-01T11:43:04;4.60;87.00
10524;DHT22;5310;48.638;9.060;2023-03-01T11:46:08;4.90;86.60
10524;DHT22;5310;48.638;9.060;2023-03-01T11:50:54;4.80;85.80
10524;DHT22;5310;48.638;9.060;2023-03-01T11:56:13;5.20;84.90
10524;DHT22;5310;48.638;9.060;2023-03-01T12:01:46;5.10;84.20
10524;DHT22;5310;48.638;9.060;2023-03-01T12:07:15;5.40;84.50
10524;DHT22;5310;48.638;9.060;2023-03-01T12:20:46;5.70;84.20
10524;DHT22;5310;48.638;9.060;2023-03-01T12:26:10;5.60;83.10
10524;DHT22;5310;48.638;9.060;2023-03-01T12:31:40;5.40;83.60
10524;DHT22;5310;48.638;9.060;2023-03-01T12:50:24;5.50;83.00
10524;DHT22;5310;48.638;9.060;2023-03-01T12:55:39;5.50;83.10
10524;DHT22;5310;48.638;9.060;2023-03-01T12:58:29;5.60;83.40
10524;DHT22;5310;48.638;9.060;2023-03-01T13:01:14;5.60;83.00
10524;DHT22;5310;48.638;9.060;2023-03-01T13:06:47;5.90;82.80
10524;DHT22;5310;48.638;9.060;2023-03-01T13:09:23;6.10;82.50
10524;DHT22;5310;48.638;9.060;2023-03-01T13:21:45;6.30;82.20
10524;DHT22;5310;48.638;9.060;2023-03-01T13:32:26;6.50;81.50
10524;DHT22;5310;48.638;9.060;2023-03-01T13:35:40;6.50;81.20
10524;DHT22;5310;48.638;9.060;2023-03-01T13:43:47;6.40;81.50
10524;DHT22;5310;48.638;9.060;2023-03-01T13:46:20;6.50;81.30
10524;DHT22;5310;48.638;9.060;2023-03-01T13:56:16;6.60;81.50
10524;DHT22;5310;48.638;9.060;2023-03-01T13:59:16;6.70;80.90
10524;DHT22;5310;48.638;9.060;2023-03-01T14:01:42;6.80;81.20
10524;DHT22;5310;48.638;9.060;2023-03-01T14:04:31;6.90;80.40
10524;DHT22;5310;48.638;9.060;2023-03-01T14:07:18;6.90;80.40
10524;DHT22;5310;48.638;9.060;2023-03-01T14:12:36;6.50;81.50
10524;DHT22;5310;48.638;9.060;2023-03-01T14:15:10;6.60;81.20
10524;DHT22;5310;48.638;9.060;2023-03-01T14:20:27;6.80;80.90
10524;DHT22;5310;48.638;9.060;2023-03-01T14:28:15;6.60;80.30
10524;DHT22;5310;48.638;9.060;2023-03-01T14:30:44;6.60;80.60
10524;DHT22;5310;48.638;9.060;2023-03-01T14:41:02;6.70;80.70
10524;DHT22;5310;48.638;9.060;2023-03-01T14:50:48;6.50;81.50
10524;DHT22;5310;48.638;9.060;2023-03-01T14:53:20;6.50;81.90
10524;DHT22;5310;48.638;9.060;2023-03-01T14:58:17;6.40;82.10
10524;DHT22;5310;48.638;9.060;2023-03-01T15:00:56;6.30;81.80
10524;DHT22;5310;48.638;9.060;2023-03-01T15:03:41;6.30;82.40
10524;DHT22;5310;48.638;9.060;2023-03-01T15:08:35;6.30;82.80
10524;DHT22;5310;48.638;9.060;2023-03-01T15:16:30;6.40;82.40
10524;DHT22;5310;48.638;9.060;2023-03-01T15:21:31;6.40;82.40
10524;DHT22;5310;48.638;9.060;2023-03-01T15:24:14;6.30;82.70
10524;DHT22;5310;48.638;9.060;2023-03-01T15:26:56;6.40;82.80
10524;DHT22;5310;48.638;9.060;2023-03-01T15:29:25;6.30;82.70
10524;DHT22;5310;48.638;9.060;2023-03-01T15:32:01;6.40;82.70
10524;DHT22;5310;48.638;9.060;2023-03-01T15:37:01;6.30;83.30
10524;DHT22;5310;48.638;9.060;2023-03-01T15:39:34;6.30;83.60
10524;DHT22;5310;48.638;9.060;2023-03-01T15:42:03;6.40;83.00
10524;DHT22;5310;48.638;9.060;2023-03-01T15:44:33;6.50;82.40
10524;DHT22;5310;48.638;9.060;2023-03-01T15:47:00;6.50;82.40
10524;DHT22;5310;48.638;9.060;2023-03-01T15:52:13;6.50;83.10
10524;DHT22;5310;48.638;9.060;2023-03-01T15:54:39;6.40;83.30
10524;DHT22;5310;48.638;9.060;2023-03-01T16:09:28;5.90;84.90
10524;DHT22;5310;48.638;9.060;2023-03-01T16:21:42;5.70;86.00
10524;DHT22;5310;48.638;9.060;2023-03-01T16:24:09;5.70;86.00
10524;DHT22;5310;48.638;9.060;2023-03-01T16:33:57;5.50;85.80
10524;DHT22;5310;48.638;9.060;2023-03-01T16:36:25;5.50;86.00
10524;DHT22;5310;48.638;9.060;2023-03-01T16:38:54;5.40;85.40
10524;DHT22;5310;48.638;9.060;2023-03-01T16:43:47;5.40;85.10
10524;DHT22;5310;48.638;9.060;2023-03-01T16:53:34;5.00;86.30
10524;DHT22;5310;48.638;9.060;2023-03-01T16:56:03;4.80;86.70
10524;DHT22;5310;48.638;9.060;2023-03-01T16:58:29;4.70;87.30
10524;DHT22;5310;48.638;9.060;2023-03-01T17:03:23;4.70;87.30
10524;DHT22;5310;48.638;9.060;2023-03-01T17:05:49;4.60;87.90
10524;DHT22;5310;48.638;9.060;2023-03-01T17:08:15;4.40;88.50
10524;DHT22;5310;48.638;9.060;2023-03-01T17:10:42;4.40;88.60
10524;DHT22;5310;48.638;9.060;2023-03-01T17:15:34;4.30;88.50
10524;DHT22;5310;48.638;9.060;2023-03-01T17:18:01;4.10;89.10
10524;DHT22;5310;48.638;9.060;2023-03-01T17:20:26;4.00;89.70
10524;DHT22;5310;48.638;9.060;2023-03-01T17:30:12;3.80;89.80
10524;DHT22;5310;48.638;9.060;2023-03-01T17:35:04;3.70;90.30
10524;DHT22;5310;48.638;9.060;2023-03-01T17:52:06;3.40;91.00
10524;DHT22;5310;48.638;9.060;2023-03-01T17:56:58;3.20;91.20
10524;DHT22;5310;48.638;9.060;2023-03-01T17:59:24;3.20;91.60
10524;DHT22;5310;48.638;9.060;2023-03-01T18:09:13;3.00;92.10
10524;DHT22;5310;48.638;9.060;2023-03-01T18:16:33;3.00;92.40
10524;DHT22;5310;48.638;9.060;2023-03-01T18:19:00;2.90;92.30
10524;DHT22;5310;48.638;9.060;2023-03-01T18:21:27;2.90;92.50
10524;DHT22;5310;48.638;9.060;2023-03-01T18:23:53;2.80;92.80
10524;DHT22;5310;48.638;9.060;2023-03-01T18:31:14;2.70;93.60
10524;DHT22;5310;48.638;9.060;2023-03-01T18:33:43;2.60;93.50
10524;DHT22;5310;48.638;9.060;2023-03-01T19:05:28;1.90;96.00
10524;DHT22;5310;48.638;9.060;2023-03-01T19:12:46;1.80;96.30
10524;DHT22;5310;48.638;9.060;2023-03-01T19:37:08;1.60;97.20
10524;DHT22;5310;48.638;9.060;2023-03-01T19:39:34;1.40;97.20
10524;DHT22;5310;48.638;9.060;2023-03-01T19:46:54;1.20;97.70
10524;DHT22;5310;48.638;9.060;2023-03-01T19:51:51;1.20;98.40
10524;DHT22;5310;48.638;9.060;2023-03-01T19:56:48;1.30;98.40
10524;DHT22;5310;48.638;9.060;2023-03-01T19:59:14;1.20;98.60
10524;DHT22;5310;48.638;9.060;2023-03-01T20:01:40;1.10;98.60
10524;DHT22;5310;48.638;9.060;2023-03-01T20:06:36;0.90;99.20
10524;DHT22;5310;48.638;9.060;2023-03-01T20:09:03;0.90;99.30
10524;DHT22;5310;48.638;9.060;2023-03-01T20:18:48;0.70;99.90
10524;DHT22;5310;48.638;9.060;2023-03-01T20:26:10;0.60;99.90
10524;DHT22;5310;48.638;9.060;2023-03-01T20:28:41;0.70;99.90
10524;DHT22;5310;48.638;9.060;2023-03-01T20:31:08;0.70;99.90
10524;DHT22;5310;48.638;9.060;2023-03-01T20:33:35;0.70;99.90
10524;DHT22;5310;48.638;9.060;2023-03-01T20:36:01;0.80;99.90
10524;DHT22;5310;48.638;9.060;2023-03-01T20:41:00;0.80;99.90
10524;DHT22;5310;48.638;9.060;2023-03-01T20:43:27;0.90;99.90
10524;DHT22;5310;48.638;9.060;2023-03-01T20:55:36;0.80;99.90
10524;DHT22;5310;48.638;9.060;2023-03-01T21:07:48;0.60;99.90
10524;DHT22;5310;48.638;9.060;2023-03-01T21:12:39;0.70;99.90
10524;DHT22;5310;48.638;9.060;2023-03-01T21:17:32;0.70;99.90
10524;DHT22;5310;48.638;9.060;2023-03-01T21:19:58;0.70;99.90
10524;DHT22;5310;48.638;9.060;2023-03-01T21:24:50;0.80;99.90
10524;DHT22;5310;48.638;9.060;2023-03-01T21:27:16;0.80;99.90
10524;DHT22;5310;48.638;9.060;2023-03-01T21:29:44;0.80;99.90
10524;DHT22;5310;48.638;9.060;2023-03-01T21:41:57;0.90;99.90
10524;DHT22;5310;48.638;9.060;2023-03-01T21:44:24;0.80;99.90
10524;DHT22;5310;48.638;9.060;2023-03-01T21:46:51;0.70;99.90
10524;DHT22;5310;48.638;9.060;2023-03-01T21:56:39;0.90;99.90
10524;DHT22;5310;48.638;9.060;2023-03-01T22:01:33;1.10;99.90
10524;DHT22;5310;48.638;9.060;2023-03-01T22:11:26;1.00;99.90
10524;DHT22;5310;48.638;9.060;2023-03-01T22:21:12;0.90;99.90
10524;DHT22;5310;48.638;9.060;2023-03-01T22:28:31;0.80;99.90
10524;DHT22;5310;48.638;9.060;2023-03-01T22:35:49;0.70;99.90
10524;DHT22;5310;48.638;9.060;2023-03-01T22:50:26;0.50;99.90
10524;DHT22;5310;48.638;9.060;2023-03-01T23:00:10;0.40;99.90
10524;DHT22;5310;48.638;9.060;2023-03-01T23:02:38;0.30;99.90
10524;DHT22;5310;48.638;9.060;2023-03-01T23:05:08;0.20;99.90
10524;DHT22;5310;48.638;9.060;2023-03-01T23:10:02;0.10;99.90
10524;DHT22;5310;48.638;9.060;2023-03-01T23:12:28;0.10;99.90
10524;DHT22;5310;48.638;9.060;2023-03-01T23:17:20;0.10;99.90
10524;DHT22;5310;48.638;9.060;2023-03-01T23:19:46;0.00;99.90
10524;DHT22;5310;48.638;9.060;2023-03-01T23:29:30;-0.30;99.90
10524;DHT22;5310;48.638;9.060;2023-03-01T23:31:57;-0.40;99.90
10524;DHT22;5310;48.638;9.060;2023-03-01T23:34:24;-0.40;99.90
10524;DHT22;5310;48.638;9.060;2023-03-01T23:39:19;-0.30;99.90
10524;DHT22;5310;48.638;9.060;2023-03-01T23:49:08;-0.30;99.90
10524;DHT22;5310;48.638;9.060;2023-03-01T23:54:02;-0.50;99.90
10524;DHT22;5310;48.638;9.060;2023-03-01T23:56:31;-0.60;99.90
10524;DHT22;5310;48.638;9.060;2023-03-01T23:58:59;-0.60;99.90
